Time;durP1;ratioP1;P1;durP2;ratioP2;P2;SDS_P1;SDS_P2;PMS_P1;PMS_P2;Temp;Humidity;BMP_temperature;BMP_pressure;BME280_temperature;BME280_humidity;BME280_pressure;Samples;Min_cycle;Max_cycle;Signal;HPM_P1;HPM_P2
2022/07/16 00:02:40;;;;;;;6.80;3.17;;;;;;;19.10;48.95;102032.47;5092728;28;20043;-70
2022/07/16 00:05:06;;;;;;;4.80;3.08;;;;;;;19.14;49.04;102022.34;5091602;28;20468;-70
2022/07/16 00:07:31;;;;;;;6.13;2.53;;;;;;;19.15;48.90;102028.81;5089415;28;20079;-70
2022/07/16 00:09:58;;;;;;;6.70;2.90;;;;;;;19.16;48.93;102025.69;5089625;28;20093;-70
2022/07/16 00:12:24;;;;;;;5.45;2.67;;;;;;;19.20;48.94;102034.41;5095014;28;20015;-70
2022/07/16 00:14:49;;;;;;;5.97;2.92;;;;;;;19.13;48.77;102027.09;5093178;28;20028;-70
2022/07/16 00:17:14;;;;;;;5.82;2.33;;;;;;;19.20;48.86;102031.59;5091712;28;20061;-70
2022/07/16 00:19:40;;;;;;;4.03;2.67;;;;;;;19.22;49.02;102030.19;5085476;28;20441;-70
2022/07/16 00:22:05;;;;;;;6.22;2.83;;;;;;;19.24;48.82;102038.34;5086413;28;20105;-70
2022/07/16 00:24:30;;;;;;;5.85;2.50;;;;;;;19.19;48.91;102029.91;5092813;28;20054;-69
2022/07/16 00:26:56;;;;;;;4.72;2.15;;;;;;;19.26;49.02;102038.94;5090938;28;20022;-69
2022/07/16 00:29:21;;;;;;;3.95;2.10;;;;;;;19.20;49.14;102043.69;5090154;28;20024;-70
2022/07/16 00:31:49;;;;;;;8.73;2.50;;;;;;;19.19;48.86;102046.81;5088802;28;20162;-70
2022/07/16 00:34:15;;;;;;;4.65;2.45;;;;;;;19.16;49.05;102048.22;5085216;28;20028;-69
2022/07/16 00:36:41;;;;;;;5.63;2.72;;;;;;;19.12;48.87;102042.28;5092215;28;20036;-69
2022/07/16 00:39:08;;;;;;;6.45;2.80;;;;;;;19.11;48.57;102046.25;5087389;28;20078;-69
2022/07/16 00:41:34;;;;;;;4.47;3.00;;;;;;;19.10;48.71;102044.56;5090787;28;20116;-69
2022/07/16 00:44:02;;;;;;;6.30;2.63;;;;;;;19.07;48.94;102044.28;5109083;28;20548;-70
2022/07/16 00:46:28;;;;;;;3.72;2.85;;;;;;;19.11;48.86;102036.97;5077246;28;20060;-70
2022/07/16 00:48:54;;;;;;;6.60;2.80;;;;;;;19.13;49.06;102038.34;5096057;28;20110;-70
2022/07/16 00:51:22;;;;;;;6.95;2.58;;;;;;;19.09;48.99;102031.59;5087939;28;20028;-70
2022/07/16 00:53:48;;;;;;;5.47;3.00;;;;;;;19.14;48.89;102036.41;5085193;28;20035;-69
2022/07/16 00:56:14;;;;;;;4.95;2.70;;;;;;;19.11;48.94;102035.00;5094313;28;20055;-70
2022/07/16 00:58:41;;;;;;;4.32;2.90;;;;;;;19.15;48.84;102031.63;5099223;28;20485;-70
2022/07/16 01:01:08;;;;;;;4.75;2.70;;;;;;;19.15;48.96;102035.28;5094228;28;20127;-70
2022/07/16 01:03:35;;;;;;;6.53;2.80;;;;;;;19.10;49.29;102036.13;5093693;28;20032;-70
2022/07/16 01:06:02;;;;;;;4.78;2.65;;;;;;;19.10;49.37;102032.47;5091645;28;20032;-70
2022/07/16 01:08:28;;;;;;;5.47;2.72;;;;;;;19.12;49.32;102035.81;5077834;28;20054;-70
2022/07/16 01:10:54;;;;;;;5.43;2.80;;;;;;;19.09;49.34;102034.41;5094748;28;20035;-70
2022/07/16 01:13:20;;;;;;;6.38;2.70;;;;;;;19.10;49.66;102026.84;5100321;28;20395;-69
2022/07/16 01:15:46;;;;;;;4.47;2.97;;;;;;;19.11;49.63;102034.16;5086483;28;20016;-69
2022/07/16 01:18:11;;;;;;;4.38;2.63;;;;;;;19.13;49.38;102029.06;5092269;28;20039;-70
2022/07/16 01:20:37;;;;;;;4.90;3.13;;;;;;;19.11;49.19;102023.72;5087619;28;20025;-70
2022/07/16 01:23:02;;;;;;;6.53;3.30;;;;;;;19.08;49.32;102021.47;5089637;28;20041;-70
2022/07/16 01:25:28;;;;;;;7.15;3.30;;;;;;;19.03;49.42;102026.28;5091829;28;20032;-70
2022/07/16 01:27:53;;;;;;;5.63;3.30;;;;;;;18.99;49.44;102016.72;5088530;28;20040;-70
2022/07/16 01:30:18;;;;;;;4.22;3.08;;;;;;;19.01;49.31;102020.06;5090638;28;20055;-70
2022/07/16 01:32:44;;;;;;;3.95;2.78;;;;;;;19.02;49.51;102018.94;5103446;28;20110;-70
2022/07/16 01:35:10;;;;;;;6.00;2.90;;;;;;;19.02;49.97;102030.19;5093231;28;20364;-70
2022/07/16 01:37:35;;;;;;;4.35;2.90;;;;;;;18.98;49.63;102029.94;5084720;28;20021;-69
2022/07/16 01:40:00;;;;;;;5.50;2.83;;;;;;;19.01;49.43;102028.50;5078654;28;20028;-69
2022/07/16 01:42:26;;;;;;;5.55;3.00;;;;;;;19.03;49.27;102029.09;5077050;28;20032;-69
2022/07/16 01:44:52;;;;;;;4.93;2.85;;;;;;;18.96;49.35;102034.16;5092396;28;20032;-69
2022/07/16 01:47:18;;;;;;;5.25;3.22;;;;;;;18.98;49.08;102038.38;5094207;28;20049;-69
2022/07/16 01:49:43;;;;;;;4.90;2.95;;;;;;;18.87;48.91;102040.34;5096089;28;20285;-69
2022/07/16 01:52:12;;;;;;;7.05;3.53;;;;;;;18.88;49.25;102044.81;5096547;28;20043;-69
2022/07/16 01:54:42;;;;;;;4.05;3.08;;;;;;;18.95;49.21;102032.47;5094752;28;20093;-69
2022/07/16 01:57:07;;;;;;;5.65;3.10;;;;;;;18.96;48.81;102034.97;5094800;28;20030;-69
2022/07/16 01:59:32;;;;;;;4.50;3.03;;;;;;;18.97;49.00;102035.81;5086548;28;20459;-70
2022/07/16 02:01:58;;;;;;;4.13;3.05;;;;;;;18.98;48.78;102020.63;5088481;28;20032;-70
2022/07/16 02:04:23;;;;;;;8.43;3.38;;;;;;;18.99;48.88;102025.16;5094422;28;20032;-70
2022/07/16 02:06:48;;;;;;;4.03;3.00;;;;;;;18.96;49.09;102034.16;5094661;28;20020;-70
2022/07/16 02:09:14;;;;;;;7.38;3.50;;;;;;;18.94;49.15;102019.50;5096114;28;20040;-69
2022/07/16 02:11:39;;;;;;;5.40;3.38;;;;;;;18.88;49.20;102019.50;5092148;28;20074;-70
2022/07/16 02:14:04;;;;;;;7.20;3.30;;;;;;;18.93;49.09;102015.84;5080103;28;20442;-69
2022/07/16 02:16:30;;;;;;;5.57;3.33;;;;;;;18.89;49.25;102020.34;5091540;28;20111;-70
2022/07/16 02:18:55;;;;;;;5.32;3.33;;;;;;;18.87;49.27;102011.38;5074694;28;20035;-70
2022/07/16 02:21:20;;;;;;;3.75;3.42;;;;;;;18.89;49.33;102009.09;5083517;28;20126;-69
2022/07/16 02:23:45;;;;;;;6.35;3.33;;;;;;;18.87;49.32;102029.06;5092104;28;20039;-69
2022/07/16 02:26:11;;;;;;;5.85;3.65;;;;;;;18.91;49.46;102015.31;5097828;28;20043;-70
2022/07/16 02:28:36;;;;;;;6.15;3.50;;;;;;;18.90;49.24;102016.41;5076009;28;20387;-70
2022/07/16 02:31:01;;;;;;;7.50;3.65;;;;;;;18.88;49.51;102019.50;5080785;28;20035;-70
2022/07/16 02:33:27;;;;;;;5.78;3.85;;;;;;;18.93;49.03;102013.03;5091559;28;20987;-69
2022/07/16 02:35:52;;;;;;;6.43;3.92;;;;;;;18.85;49.56;102014.44;5085938;28;20027;-69
2022/07/16 02:38:17;;;;;;;5.15;3.72;;;;;;;18.78;49.51;102016.69;5092307;28;20024;-69
2022/07/16 02:40:43;;;;;;;7.28;4.60;;;;;;;18.80;49.72;102007.97;5078427;28;20463;-69
2022/07/16 02:43:10;;;;;;;5.45;4.00;;;;;;;18.76;49.65;102013.31;5092676;28;20016;-69
2022/07/16 02:45:38;;;;;;;8.40;4.10;;;;;;;18.79;49.72;102009.13;5091589;28;20026;-70
2022/07/16 02:48:05;;;;;;;7.07;4.63;;;;;;;18.81;49.65;102010.50;5088159;28;20035;-70
2022/07/16 02:50:30;;;;;;;6.50;4.22;;;;;;;18.76;49.78;102004.88;5083389;28;20035;-69
2022/07/16 02:52:56;;;;;;;6.53;4.25;;;;;;;18.74;49.49;102004.28;5090199;28;20024;-69
2022/07/16 02:55:22;;;;;;;5.93;4.45;;;;;;;18.76;49.66;102007.69;5096784;28;20023;-69
2022/07/16 02:57:48;;;;;;;8.18;4.53;;;;;;;18.74;49.75;102004.28;5095817;28;21661;-70
2022/07/16 03:00:15;;;;;;;8.73;4.45;;;;;;;18.72;49.67;102014.16;5080568;28;20028;-70
2022/07/16 03:02:40;;;;;;;4.20;3.75;;;;;;;18.73;49.81;102015.84;5075184;28;20034;-69
2022/07/16 03:05:07;;;;;;;8.00;4.65;;;;;;;18.70;49.91;102020.03;5092293;28;20028;-70
2022/07/16 03:07:32;;;;;;;5.25;4.35;;;;;;;18.72;49.64;102014.16;5093381;28;20084;-70
2022/07/16 03:09:57;;;;;;;5.18;4.68;;;;;;;18.75;49.69;102020.06;5100453;28;20499;-69
2022/07/16 03:12:23;;;;;;;7.20;4.15;;;;;;;18.74;49.63;102018.38;5095971;28;20028;-70
2022/07/16 03:14:48;;;;;;;7.10;5.07;;;;;;;18.72;49.84;102020.63;5088870;28;20028;-69
2022/07/16 03:17:13;;;;;;;8.05;4.57;;;;;;;18.76;49.57;102026.53;5092921;28;20383;-69
2022/07/16 03:19:39;;;;;;;6.07;4.88;;;;;;;18.71;49.91;102024.56;5086930;28;20157;-69
2022/07/16 03:22:05;;;;;;;7.25;4.32;;;;;;;18.73;49.64;102019.50;5092969;28;20047;-69
2022/07/16 03:24:30;;;;;;;6.57;4.57;;;;;;;18.68;50.06;102024.25;5070237;28;20158;-69
2022/07/16 03:26:56;;;;;;;7.07;5.07;;;;;;;18.69;49.91;102023.13;5065899;28;20048;-69
2022/07/16 03:29:21;;;;;;;7.38;5.00;;;;;;;18.64;50.28;102023.97;5080770;28;20016;-69
2022/07/16 03:31:47;;;;;;;7.80;4.88;;;;;;;18.67;49.57;102039.41;5071468;28;20136;-69
2022/07/16 03:34:12;;;;;;;6.47;4.80;;;;;;;18.68;50.26;102027.06;5065316;28;20036;-69
2022/07/16 03:36:37;;;;;;;9.23;4.85;;;;;;;18.69;50.30;102035.22;5075616;28;20020;-69
2022/07/16 03:39:04;;;;;;;10.88;5.00;;;;;;;18.67;50.27;102037.47;5085539;28;20472;-69
2022/07/16 03:41:31;;;;;;;9.63;4.60;;;;;;;18.63;50.37;102041.97;5070458;28;20050;-69
2022/07/16 03:43:57;;;;;;;9.73;4.90;;;;;;;18.68;50.31;102044.78;5053962;28;20200;-69
2022/07/16 03:46:22;;;;;;;6.72;4.85;;;;;;;18.56;50.59;102039.41;5058105;28;20131;-70
2022/07/16 03:48:48;;;;;;;5.10;4.55;;;;;;;18.65;50.27;102040.53;5056734;28;20012;-70
2022/07/16 03:51:13;;;;;;;7.80;5.10;;;;;;;18.63;50.64;102041.97;5069705;28;20062;-69
2022/07/16 03:53:39;;;;;;;7.65;5.22;;;;;;;18.61;50.74;102042.22;5076005;28;20031;-69
2022/07/16 03:56:04;;;;;;;9.73;4.85;;;;;;;18.64;50.90;102047.28;5072053;28;20028;-69
2022/07/16 03:58:30;;;;;;;10.38;4.97;;;;;;;18.59;51.42;102052.09;5089004;28;20455;-70
2022/07/16 04:00:55;;;;;;;7.22;5.25;;;;;;;18.57;51.23;102051.50;5068353;28;20784;-70
2022/07/16 04:03:21;;;;;;;6.85;5.05;;;;;;;18.62;51.12;102057.13;5069101;28;20021;-70
2022/07/16 04:05:47;;;;;;;9.32;5.22;;;;;;;18.51;51.77;102056.28;5070148;28;20075;-70
2022/07/16 04:08:12;;;;;;;6.05;4.95;;;;;;;18.55;51.81;102059.34;5085775;28;20052;-69
2022/07/16 04:10:37;;;;;;;9.02;5.20;;;;;;;18.54;52.16;102064.13;5079628;28;20036;-69
2022/07/16 04:13:03;;;;;;;10.85;5.20;;;;;;;18.52;52.61;102059.94;5070117;28;20090;-70
2022/07/16 04:15:28;;;;;;;10.27;5.50;;;;;;;18.55;52.39;102060.22;5069869;28;20032;-69
2022/07/16 04:17:53;;;;;;;8.30;5.68;;;;;;;18.53;52.84;102067.25;5070684;28;20032;-69
2022/07/16 04:20:19;;;;;;;9.02;5.55;;;;;;;18.56;52.85;102066.69;5065889;28;20028;-70
2022/07/16 04:22:45;;;;;;;8.52;5.65;;;;;;;18.54;52.97;102066.94;5081561;28;20398;-69
2022/07/16 04:25:12;;;;;;;7.60;5.60;;;;;;;18.54;53.26;102074.53;5095101;28;20115;-69
2022/07/16 04:27:38;;;;;;;8.88;5.80;;;;;;;18.54;53.40;102074.53;5090220;28;20032;-69
2022/07/16 04:30:04;;;;;;;8.20;5.95;;;;;;;18.51;53.57;102080.72;5087375;28;20391;-69
2022/07/16 04:32:29;;;;;;;13.48;5.88;;;;;;;18.52;53.83;102071.19;5090250;28;20064;-69
2022/07/16 04:34:54;;;;;;;7.72;5.72;;;;;;;18.48;54.34;102081.28;5087562;28;20032;-69
2022/07/16 04:37:20;;;;;;;7.30;5.38;;;;;;;18.46;54.48;102077.91;5079318;28;20025;-69
2022/07/16 04:39:45;;;;;;;15.20;6.38;;;;;;;18.46;54.80;102080.72;5080523;28;20467;-69
2022/07/16 04:42:10;;;;;;;8.52;5.40;;;;;;;18.44;55.19;102077.34;5088810;28;20103;-69
2022/07/16 04:44:36;;;;;;;12.23;6.18;;;;;;;18.46;55.14;102080.72;5091620;28;20475;-69
2022/07/16 04:47:01;;;;;;;10.27;5.68;;;;;;;18.42;55.68;102076.75;5083850;28;20071;-69
2022/07/16 04:49:27;;;;;;;6.72;5.50;;;;;;;18.39;56.17;102079.03;5078105;28;20051;-70
2022/07/16 04:51:52;;;;;;;6.13;5.50;;;;;;;18.45;56.43;102084.66;5075450;28;20040;-69
2022/07/16 04:54:17;;;;;;;9.98;5.85;;;;;;;18.43;57.39;102084.06;5082862;28;20020;-70
2022/07/16 04:56:43;;;;;;;6.82;5.43;;;;;;;18.38;57.97;102085.75;5096119;28;20136;-69
2022/07/16 04:59:08;;;;;;;7.38;5.72;;;;;;;18.46;58.00;102089.13;5095524;28;20046;-69
2022/07/16 05:01:33;;;;;;;9.90;5.65;;;;;;;18.45;58.86;102093.09;5091603;28;20032;-69
2022/07/16 05:03:59;;;;;;;8.75;4.97;;;;;;;18.51;58.77;102092.84;5078662;28;20055;-69
2022/07/16 05:06:24;;;;;;;7.22;4.95;;;;;;;18.57;58.52;102104.94;5088065;28;20043;-68
2022/07/16 05:08:50;;;;;;;8.93;4.95;;;;;;;18.53;59.88;102098.16;5094114;28;20020;-69
2022/07/16 05:11:15;;;;;;;5.90;4.18;;;;;;;18.61;59.54;102097.63;5103539;28;20020;-70
2022/07/16 05:13:40;;;;;;;7.78;4.07;;;;;;;18.61;60.21;102097.63;5086613;28;20435;-70
2022/07/16 05:16:06;;;;;;;6.20;4.43;;;;;;;18.63;60.24;102101.03;5089090;28;20107;-71
2022/07/16 05:18:31;;;;;;;6.00;4.00;;;;;;;18.68;60.29;102112.28;5092072;28;20024;-70
2022/07/16 05:20:56;;;;;;;8.13;4.40;;;;;;;18.65;61.16;102110.84;5092568;28;20016;-70
2022/07/16 05:23:22;;;;;;;5.95;3.53;;;;;;;18.74;60.43;102110.34;5083335;28;20207;-69
2022/07/16 05:25:47;;;;;;;7.05;3.30;;;;;;;18.84;60.19;102111.22;5102569;28;20047;-70
2022/07/16 05:28:12;;;;;;;3.95;2.58;;;;;;;18.98;58.92;102121.91;5081634;28;20016;-72
2022/07/16 05:30:38;;;;;;;4.38;2.42;;;;;;;19.05;59.21;102116.88;5090950;28;20058;-72
2022/07/16 05:33:03;;;;;;;5.68;2.88;;;;;;;19.13;59.09;102117.16;5097624;28;20073;-73
2022/07/16 05:35:28;;;;;;;5.32;2.55;;;;;;;19.23;59.29;102119.16;5094592;28;20178;-72
2022/07/16 05:37:54;;;;;;;4.00;3.25;;;;;;;19.23;60.07;102116.31;5092443;28;20475;-72
2022/07/16 05:40:19;;;;;;;5.15;2.60;;;;;;;19.34;59.63;102118.03;5094057;28;20039;-67
2022/07/16 05:42:44;;;;;;;5.05;2.90;;;;;;;19.45;59.73;102120.81;5078031;28;20110;-68
2022/07/16 05:45:10;;;;;;;6.55;3.47;;;;;;;19.43;60.38;102123.09;5086339;28;20012;-67
2022/07/16 05:47:36;;;;;;;5.68;3.17;;;;;;;19.55;59.51;102129.28;5093778;28;21884;-68
2022/07/16 05:50:02;;;;;;;6.53;3.53;;;;;;;19.50;60.71;102132.09;5100696;28;20504;-68
2022/07/16 05:52:27;;;;;;;8.25;2.67;;;;;;;19.56;60.60;102130.97;5096564;28;20036;-69
2022/07/16 05:54:52;;;;;;;7.50;3.30;;;;;;;19.57;60.60;102122.25;5093136;28;20028;-68
2022/07/16 05:57:17;;;;;;;7.82;2.92;;;;;;;19.65;60.17;102123.69;5093898;28;20111;-69
2022/07/16 05:59:43;;;;;;;4.13;2.10;;;;;;;19.72;59.57;102129.84;5090266;28;20067;-69
2022/07/16 06:02:09;;;;;;;7.65;3.03;;;;;;;19.67;60.58;102127.03;5098752;28;20031;-69
2022/07/16 06:04:34;;;;;;;8.73;2.55;;;;;;;19.73;60.19;102142.81;5095125;28;20031;-69
2022/07/16 06:06:59;;;;;;;6.13;2.28;;;;;;;19.85;59.55;102142.53;5094120;28;20432;-69
2022/07/16 06:09:25;;;;;;;3.75;1.83;;;;;;;19.91;59.23;102149.81;5094039;28;20039;-69
2022/07/16 06:11:50;;;;;;;5.55;2.20;;;;;;;19.90;59.31;102150.94;5094234;28;20032;-69
2022/07/16 06:14:15;;;;;;;3.92;2.10;;;;;;;20.01;58.78;102148.97;5095136;28;20030;-69
2022/07/16 06:16:41;;;;;;;4.40;1.65;;;;;;;20.03;58.52;102157.97;5094694;28;20416;-69
2022/07/16 06:19:06;;;;;;;5.10;2.13;;;;;;;20.07;58.09;102153.44;5094907;28;20016;-69
2022/07/16 06:21:32;;;;;;;5.13;2.00;;;;;;;20.13;57.71;102162.75;5094343;28;20048;-69
2022/07/16 06:23:57;;;;;;;6.40;1.90;;;;;;;20.11;57.61;102163.84;5094139;28;20472;-69
2022/07/16 06:26:22;;;;;;;5.95;1.75;;;;;;;20.17;57.51;102169.50;5092699;28;20028;-69
2022/07/16 06:28:47;;;;;;;5.22;1.70;;;;;;;20.06;57.09;102165.84;5093720;28;20024;-69
2022/07/16 06:31:13;;;;;;;3.38;1.40;;;;;;;20.16;56.72;102170.59;5099269;28;20035;-69
2022/07/16 06:33:38;;;;;;;4.05;1.60;;;;;;;20.18;56.82;102177.66;5097807;28;20081;-69
2022/07/16 06:36:05;;;;;;;2.42;1.42;;;;;;;20.14;56.52;102170.91;5093692;28;20035;-69
2022/07/16 06:38:31;;;;;;;3.35;1.60;;;;;;;20.22;56.92;102178.78;5094251;28;20030;-69
2022/07/16 06:40:56;;;;;;;3.78;1.83;;;;;;;20.23;56.94;102182.44;5093293;28;20485;-69
2022/07/16 06:43:22;;;;;;;4.22;1.55;;;;;;;20.23;56.85;102180.47;5094580;28;20032;-69
2022/07/16 06:45:47;;;;;;;3.55;1.38;;;;;;;20.07;56.57;102188.09;5095571;28;20072;-69
2022/07/16 06:48:12;;;;;;;3.30;1.40;;;;;;;20.10;56.47;102187.53;5097068;28;20035;-69
2022/07/16 06:50:38;;;;;;;4.57;1.45;;;;;;;20.13;56.32;102186.13;5094523;28;20032;-69
2022/07/16 06:53:03;;;;;;;5.97;1.38;;;;;;;20.05;55.90;102193.19;5093237;28;20028;-69
2022/07/16 06:55:29;;;;;;;3.60;1.42;;;;;;;20.09;56.24;102194.31;5093244;28;20027;-70
2022/07/16 06:57:54;;;;;;;4.20;1.58;;;;;;;20.14;55.77;102193.47;5094013;28;20032;-69
2022/07/16 07:00:20;;;;;;;3.22;1.40;;;;;;;20.10;55.36;102198.81;5093530;28;20111;-69
2022/07/16 07:02:45;;;;;;;4.50;1.40;;;;;;;20.16;55.27;102194.03;5088490;28;20027;-69
2022/07/16 07:05:10;;;;;;;2.75;1.23;;;;;;;20.08;54.57;102200.22;5093619;28;20103;-69
2022/07/16 07:07:35;;;;;;;4.38;1.38;;;;;;;20.20;55.52;102214.88;5092797;28;20111;-69
2022/07/16 07:10:01;;;;;;;3.83;1.10;;;;;;;20.09;52.76;102213.22;5088887;28;20114;-69
2022/07/16 07:12:26;;;;;;;1.77;1.10;;;;;;;20.18;53.60;102211.50;5090814;28;20036;-69
2022/07/16 07:14:51;;;;;;;2.65;1.10;;;;;;;20.24;53.24;102226.41;5084906;28;20024;-69
2022/07/16 07:17:17;;;;;;;2.28;1.20;;;;;;;20.25;53.18;102228.97;5091607;28;20130;-69
2022/07/16 07:19:42;;;;;;;3.72;0.90;;;;;;;20.43;53.38;102230.31;5091748;28;20031;-70
2022/07/16 07:22:07;;;;;;;2.75;1.15;;;;;;;20.41;49.69;102232.59;5101736;28;20406;-69
2022/07/16 07:24:32;;;;;;;4.80;1.23;;;;;;;20.49;50.69;102234.84;5092230;28;20032;-70
2022/07/16 07:26:58;;;;;;;3.78;1.17;;;;;;;20.46;49.80;102235.38;5090567;28;20024;-70
2022/07/16 07:29:23;;;;;;;3.78;1.30;;;;;;;20.50;50.13;102233.72;5102501;28;20051;-70
2022/07/16 07:31:48;;;;;;;1.75;1.00;;;;;;;20.55;50.19;102244.13;5099610;28;20517;-70
2022/07/16 07:34:14;;;;;;;1.42;1.00;;;;;;;20.58;50.49;102237.91;5092931;28;20085;-70
2022/07/16 07:36:39;;;;;;;3.30;1.13;;;;;;;20.58;50.42;102235.94;5091525;28;20028;-70
2022/07/16 07:39:04;;;;;;;2.67;1.20;;;;;;;20.67;50.70;102241.84;5093328;28;20145;-70
2022/07/16 07:41:29;;;;;;;2.80;1.13;;;;;;;20.65;49.69;102246.94;5093445;28;20463;-70
2022/07/16 07:43:55;;;;;;;3.60;1.25;;;;;;;20.60;50.25;102241.31;5093177;28;20032;-70
2022/07/16 07:46:20;;;;;;;2.97;1.10;;;;;;;20.69;50.72;102244.38;5087989;28;20493;-70
2022/07/16 07:48:46;;;;;;;2.58;1.10;;;;;;;20.64;49.95;102250.06;5098990;28;20069;-69
2022/07/16 07:51:12;;;;;;;2.33;1.10;;;;;;;20.76;50.27;102248.59;5090014;28;20530;-69
2022/07/16 07:53:37;;;;;;;2.65;1.23;;;;;;;20.77;50.02;102250.25;5079901;28;20190;-70
2022/07/16 07:56:03;;;;;;;3.90;1.40;;;;;;;20.82;49.89;102255.88;5086284;28;20039;-69
2022/07/16 07:58:28;;;;;;;4.45;1.25;;;;;;;20.84;49.21;102258.44;5107580;28;20058;-70
2022/07/16 08:00:54;;;;;;;4.10;1.55;;;;;;;20.82;49.09;102253.06;5095369;28;20040;-70
2022/07/16 08:03:21;;;;;;;2.67;1.20;;;;;;;20.83;49.15;102251.94;5098910;28;20031;-70
2022/07/16 08:05:46;;;;;;;3.22;1.30;;;;;;;20.88;48.82;102259.53;5078428;28;20028;-70
2022/07/16 08:08:11;;;;;;;2.20;1.10;;;;;;;21.07;49.70;102269.06;5095876;28;20360;-69
2022/07/16 08:10:37;;;;;;;4.88;1.55;;;;;;;21.08;49.21;102272.72;5099307;28;20040;-70
2022/07/16 08:13:02;;;;;;;1.58;1.00;;;;;;;21.16;49.35;102265.63;5089218;28;20459;-70
2022/07/16 08:15:27;;;;;;;3.72;1.27;;;;;;;21.13;48.77;102267.03;5073733;28;20040;-71
2022/07/16 08:17:52;;;;;;;2.20;1.20;;;;;;;21.16;48.41;102274.94;5098332;28;20028;-72
2022/07/16 08:20:18;;;;;;;3.58;1.05;;;;;;;21.33;49.22;102266.94;5091382;28;20016;-70
2022/07/16 08:22:43;;;;;;;3.53;1.25;;;;;;;21.38;48.88;102268.94;5086536;28;20403;-69
2022/07/16 08:27:54;;;;;;;1.77;1.20;;;;;;;21.56;48.63;102278.69;5084640;28;20503;-70
2022/07/16 08:30:19;;;;;;;5.07;1.70;;;;;;;21.57;48.24;102288.84;5072131;28;20033;-68
2022/07/16 08:32:45;;;;;;;3.42;1.40;;;;;;;21.63;47.81;102282.03;5092430;28;20436;-68
2022/07/16 08:35:10;;;;;;;2.67;1.52;;;;;;;21.68;47.48;102279.16;5091309;28;20044;-68
2022/07/16 08:37:38;;;;;;;2.38;1.20;;;;;;;21.70;47.09;102291.03;5093636;28;20039;-68
2022/07/16 08:40:07;;;;;;;3.17;1.30;;;;;;;21.76;47.81;102298.31;5096525;28;20474;-68
2022/07/16 08:42:33;;;;;;;2.70;1.30;;;;;;;21.88;47.67;102294.28;5092051;28;20036;-69
2022/07/16 08:45:00;;;;;;;1.60;1.10;;;;;;;21.94;46.90;102298.75;5088517;28;20032;-68
2022/07/16 08:47:29;;;;;;;5.28;1.10;;;;;;;21.96;46.01;102302.13;5088975;28;20467;-69
2022/07/16 08:49:54;;;;;;;3.60;1.20;;;;;;;21.98;45.33;102303.53;5086615;28;20097;-70
2022/07/16 08:52:25;;;;;;;3.40;1.30;;;;;;;22.00;46.32;102311.69;5093316;28;20016;-69
2022/07/16 08:54:51;;;;;;;3.78;1.00;;;;;;;22.01;45.89;102304.94;5082442;28;20394;-69
2022/07/16 08:57:17;;;;;;;1.83;1.17;;;;;;;22.04;45.03;102307.13;5104585;28;20042;-70
2022/07/16 08:59:42;;;;;;;2.20;1.38;;;;;;;22.04;45.25;102313.63;5105021;28;20483;-69
2022/07/16 09:02:10;;;;;;;4.85;1.30;;;;;;;21.99;45.10;102310.84;5091753;28;20028;-69
2022/07/16 09:04:36;;;;;;;4.32;1.30;;;;;;;21.99;44.84;102307.19;5081526;28;20021;-69
2022/07/16 09:07:01;;;;;;;3.53;1.17;;;;;;;22.02;45.07;102321.59;5093656;28;20036;-69
2022/07/16 09:09:26;;;;;;;3.78;1.30;;;;;;;21.97;44.31;102323.63;5094130;28;20107;-69
2022/07/16 09:11:52;;;;;;;3.08;1.02;;;;;;;21.90;45.20;102323.09;5089924;28;20036;-69
2022/07/16 09:14:18;;;;;;;2.38;1.20;;;;;;;21.76;44.25;102326.56;5100711;28;20428;-69
2022/07/16 09:16:49;;;;;;;2.17;1.00;;;;;;;21.65;44.14;102324.94;5092988;28;20472;-69
2022/07/16 09:19:16;;;;;;;4.75;1.10;;;;;;;21.69;44.45;102319.56;5085947;28;20380;-70
2022/07/16 09:22:11;;;;;;;3.78;1.35;;;;;;;21.86;45.42;102324.81;5095080;28;20036;-68
2022/07/16 09:24:44;;;;;;;3.72;1.27;;;;;;;21.88;43.76;102323.38;5094259;28;20434;-69
2022/07/16 09:27:24;;;;;;;6.43;1.20;;;;;;;21.97;43.62;102323.63;5102239;28;20035;-69
2022/07/16 09:30:02;;;;;;;4.97;1.13;;;;;;;22.03;43.06;102325.25;5098415;28;20130;-69
2022/07/16 09:32:39;;;;;;;3.10;1.20;;;;;;;22.11;42.87;102332.25;5097627;28;20081;-68
2022/07/16 09:35:04;;;;;;;2.88;1.13;;;;;;;22.14;42.64;102324.06;5088447;28;20028;-68
2022/07/16 09:37:48;;;;;;;2.70;1.13;;;;;;;22.29;43.86;102326.75;5080982;28;20028;-68
2022/07/16 09:40:27;;;;;;;2.92;1.20;;;;;;;22.29;42.54;102329.59;5084592;28;20477;-68
2022/07/16 09:42:53;;;;;;;3.47;1.38;;;;;;;22.33;41.00;102331.81;5106651;28;20028;-68
2022/07/16 09:45:20;;;;;;;3.47;1.25;;;;;;;22.37;41.80;102335.75;5103556;28;20027;-68
2022/07/16 09:47:46;;;;;;;4.65;1.10;;;;;;;22.46;42.32;102331.13;5094056;28;20036;-68
2022/07/16 09:50:11;;;;;;;1.85;1.10;;;;;;;22.49;41.63;102344.69;5097266;28;20371;-68
2022/07/16 09:52:37;;;;;;;2.92;1.10;;;;;;;22.51;40.97;102346.06;5094637;28;20035;-68
2022/07/16 09:55:03;;;;;;;2.25;1.10;;;;;;;22.56;42.20;102339.53;5094792;28;20024;-68
2022/07/16 09:57:29;;;;;;;4.35;1.38;;;;;;;22.62;41.38;102343.97;5093356;28;20027;-68
2022/07/16 09:59:56;;;;;;;4.07;1.30;;;;;;;22.63;41.23;102347.66;5097441;28;20383;-66
2022/07/16 10:02:23;;;;;;;2.90;1.25;;;;;;;22.66;41.89;102353.56;5087674;28;20024;-67
2022/07/16 10:04:48;;;;;;;3.78;1.30;;;;;;;22.66;40.86;102356.38;5079105;28;20025;-67
2022/07/16 10:07:14;;;;;;;2.28;1.17;;;;;;;22.53;39.91;102357.09;5102475;28;20027;-66
2022/07/16 10:09:39;;;;;;;2.08;1.27;;;;;;;22.59;39.71;102355.88;5095086;28;20391;-67
2022/07/16 10:12:11;;;;;;;2.70;1.17;;;;;;;22.64;39.19;102358.69;5094974;28;20395;-68
2022/07/16 10:14:43;;;;;;;2.17;1.10;;;;;;;22.65;38.21;102368.84;5090847;28;20028;-67
2022/07/16 10:17:20;;;;;;;;;;;;;;;22.76;40.72;102359.13;5108839;28;20035;-67
2022/07/16 10:19:55;;;;;;;3.28;1.20;;;;;;;22.73;39.51;102356.88;5085721;28;20375;-68
2022/07/16 10:22:27;;;;;;;3.35;1.20;;;;;;;22.76;39.98;102364.78;5091557;28;20032;-67
2022/07/16 10:24:54;;;;;;;2.38;0.98;;;;;;;22.83;39.65;102372.06;5083451;28;20039;-70
2022/07/16 10:27:36;;;;;;;2.58;0.90;;;;;;;22.84;39.64;102368.94;5083334;28;20033;-73
2022/07/16 10:30:20;;;;;;;;;;;;;;;22.91;40.81;102380.78;5091414;28;20031;-71
2022/07/16 10:33:06;;;;;;;2.75;1.20;;;;;;;22.88;39.90;102372.88;5082958;28;19916;-71
2022/07/16 10:35:45;;;;;;;2.53;1.10;;;;;;;22.89;39.29;102373.72;5090685;28;20103;-69
2022/07/16 10:38:23;;;;;;;3.60;1.33;;;;;;;22.98;39.77;102375.59;5085915;28;20020;-70
2022/07/16 10:41:13;;;;;;;3.78;1.00;;;;;;;22.98;39.27;102380.41;5084419;28;20023;-73
2022/07/16 10:43:39;;;;;;;2.97;1.13;;;;;;;22.87;38.95;102375.97;5085355;28;20048;-68
2022/07/16 10:46:06;;;;;;;4.22;1.42;;;;;;;22.90;39.06;102375.38;5092517;28;20036;-68
2022/07/16 10:48:37;;;;;;;3.70;1.00;;;;;;;23.05;39.61;102371.56;5087169;28;20042;-70
2022/07/16 10:51:15;;;;;;;4.40;1.17;;;;;;;23.06;38.93;102382.59;5093624;28;20032;-63
2022/07/16 10:53:58;;;;;;;4.22;1.35;;;;;;;22.99;38.59;102388.63;5086574;28;20043;-68
2022/07/16 10:56:35;;;;;;;3.47;1.25;;;;;;;22.96;38.66;102382.72;5087368;28;20060;-70
2022/07/16 10:59:07;;;;;;;2.25;1.00;;;;;;;23.01;38.18;102377.00;5087720;28;20027;-66
2022/07/16 11:01:34;;;;;;;2.20;1.10;;;;;;;23.13;38.29;102383.09;5084777;28;20067;-67
2022/07/16 11:03:59;;;;;;;2.17;1.20;;;;;;;23.17;37.89;102384.16;5079214;28;20024;-65
2022/07/16 11:06:24;;;;;;;3.60;1.25;;;;;;;23.26;37.63;102382.38;5083139;28;20109;-70
2022/07/16 11:08:58;;;;;;;3.05;1.17;;;;;;;23.16;38.38;102393.81;5081557;28;20154;-70
2022/07/16 11:11:30;;;;;;;3.85;1.23;;;;;;;23.05;38.54;102392.25;5071274;28;20039;-70
2022/07/16 11:13:56;;;;;;;;;;;;;;;23.11;39.89;102391.06;5086940;28;20414;-71
2022/07/16 11:16:22;;;;;;;6.43;1.90;;;;;;;22.81;39.10;102386.53;5081902;28;19994;-70
2022/07/16 11:18:47;;;;;;;2.92;1.33;;;;;;;22.78;39.96;102392.78;5090279;28;20484;-70
2022/07/16 11:21:13;;;;;;;6.28;1.45;;;;;;;22.89;39.95;102393.53;5091726;28;20108;-69
2022/07/16 11:23:59;;;;;;;5.35;1.50;;;;;;;22.97;39.98;102399.41;5090698;28;20036;-71
2022/07/16 11:26:26;;;;;;;2.03;1.02;;;;;;;23.07;38.84;102389.97;5091245;28;20028;-71
2022/07/16 11:29:04;;;;;;;2.20;1.20;;;;;;;23.10;39.57;102395.00;5090900;28;20073;-70